Last 7 Days

Williams 2 (WL2)

Hourly Data | America/Los_Angeles
as of 10/22/18 11:13 AM PDT
Date Time Temp (°F) RH (%) Dew Pt (°F) Wind Spd ( mph) Wind Dir (°) Wind Gust ( mph) Wind Gst Dir (°) Latest Rain (In) Solar Rad Tot Hr (Cal/cm2) Daily Rain (In) Min Temp (°F) Max Temp (°F) Day
10/22/18 0900 48.0 82 42.6 0.0 E | 93 1.6 SSE | 153 0.00 14 0.00 38.4 53.9 10/22/18
10/22/18 0800 39.7 87 36.3 0.1 SE | 137 2.1 S | 178 0.00 1 0.00 38.4 48.0 10/22/18
10/22/18 0700 40.4 86 36.7 0.0 NNE | 25 1.7 NNE | 28 0.00 0 0.00 39.4 48.0 10/22/18
10/22/18 0600 41.0 85 36.8 0.1 ESE | 122 1.9 ESE | 109 0.00 0 0.00 40.4 48.0 10/22/18
10/22/18 0500 41.6 84 37.1 0.0 E | 94 1.2 ESE | 114 0.00 0 0.00 40.4 48.0 10/22/18
10/22/18 0400 42.2 82 37.2 0.2 NE | 48 2.1 NE | 42 0.00 0 0.00 41.5 48.0 10/22/18
10/22/18 0300 43.1 80 37.5 0.0 N | 357 1.7 NNW | 341 0.00 0 0.00 42.3 48.0 10/22/18
10/22/18 0200 44.3 81 38.7 0.1 NE | 49 1.6 NNE | 17 0.00 0 0.00 43.4 48.0 10/22/18
10/22/18 0100 46.3 79 40.0 0.0 N | 6 1.6 NNW | 344 0.00 0 0.00 45.2 48.0 10/22/18
10/22/18 0000 47.8 76 40.5 0.1 NNW | 330 2.4 NW | 310 0.00 0 0.00 43.2 83.9 10/21/18
10/21/18 2300 48.7 70 39.3 0.1 SE | 129 2.4 ESE | 115 0.00 0 0.00 43.2 83.9 10/21/18
10/21/18 2200 51.7 67 41.0 0.2 E | 86 2.2 NE | 35 0.00 0 0.00 43.2 83.9 10/21/18
10/21/18 2100 54.9 61 41.6 0.5 ENE | 75 3.3 ENE | 65 0.00 0 0.00 43.2 83.9 10/21/18
10/21/18 2000 61.5 53 43.9 0.5 NNE | 26 3.4 NNE | 13 0.00 0 0.00 43.2 83.9 10/21/18
10/21/18 1900 67.7 40 42.1 0.7 NNE | 27 3.3 NNE | 21 0.00 0 0.00 43.2 83.9 10/21/18
10/21/18 1800 78.5 24 38.6 4.1 NNW | 333 7.6 N | 354 0.00 10 0.00 43.2 83.9 10/21/18
10/21/18 1700 82.7 18 34.7 4.1 NNW | 327 7.4 NNW | 337 0.00 27 0.00 43.2 83.9 10/21/18
10/21/18 1600 81.9 26 43.3 2.0 E | 96 6.9 NNW | 340 0.00 40 0.00 43.2 83.5 10/21/18
10/21/18 1500 77.5 34 47.1 3.1 SE | 131 7.3 ESE | 105 0.00 50 0.00 43.2 79.7 10/21/18
10/21/18 1400 74.1 39 47.3 3.4 SSE | 147 7.4 SSW | 206 0.00 56 0.00 43.2 76.0 10/21/18
10/21/18 1300 71.7 42 47.4 3.3 SSE | 148 6.9 SE | 127 0.00 56 0.00 43.2 72.7 10/21/18
10/21/18 1200 68.6 46 46.9 2.9 SSE | 165 6.1 SW | 218 0.00 51 0.00 43.2 70.6 10/21/18
10/21/18 1100 64.8 49 45.1 1.9 SE | 143 5.6 SE | 135 0.00 42 0.00 43.2 67.3 10/21/18
10/21/18 1000 59.2 56 43.4 1.1 S | 179 3.6 SSE | 158 0.00 28 0.00 43.2 61.3 10/21/18
10/21/18 0900 50.8 70 41.2 0.1 E | 101 1.9 E | 97 0.00 14 0.00 43.2 56.7 10/21/18
10/21/18 0800 45.0 81 39.4 0.3 NNW | 342 2.6 N | 353 0.00 1 0.00 43.2 55.1 10/21/18
10/21/18 0700 45.1 80 39.1 0.7 N | 355 3.6 N | 354 0.00 0 0.00 43.2 55.1 10/21/18
10/21/18 0600 44.2 78 37.8 0.2 N | 4 2.6 - 0.00 0 0.00 43.2 55.1 10/21/18
10/21/18 0500 44.9 76 38.0 0.2 SSE | 152 2.1 S | 182 0.00 0 0.00 44.2 55.1 10/21/18
10/21/18 0400 46.2 76 38.9 0.0 W | 277 1.7 W | 260 0.00 0 0.00 45.6 55.1 10/21/18
10/21/18 0300 49.2 71 40.3 0.7 N | 359 3.8 NW | 324 0.00 0 0.00 47.0 55.1 10/21/18
10/21/18 0200 50.2 69 40.3 0.5 NNW | 343 3.4 WNW | 298 0.00 0 0.00 48.7 55.1 10/21/18
10/21/18 0100 52.3 64 40.3 1.2 NNW | 336 4.3 N | 5 0.00 0 0.00 50.6 55.1 10/21/18
10/21/18 0000 54.3 59 40.5 2.2 NNW | 341 5.6 NNE | 15 0.00 0 0.00 47.5 85.1 10/20/18
10/20/18 2300 54.9 56 39.4 0.7 N | 355 5.3 NNW | 340 0.00 0 0.00 47.5 85.1 10/20/18
10/20/18 2200 56.8 51 38.7 0.4 WSW | 258 4.4 NNW | 328 0.00 0 0.00 47.5 85.1 10/20/18
10/20/18 2100 62.5 42 39.2 2.2 NNW | 335 5.8 NNW | 344 0.00 0 0.00 47.5 85.1 10/20/18
10/20/18 2000 64.6 38 38.7 3.1 NNW | 339 6.6 N | 349 0.00 0 0.00 47.5 85.1 10/20/18
10/20/18 1900 68.4 34 38.7 1.4 N | 349 5.4 NW | 325 0.00 0 0.00 47.5 85.1 10/20/18
10/20/18 1800 80.6 25 41.0 1.2 SW | 236 4.4 WSW | 241 0.00 11 0.00 47.5 85.1 10/20/18
10/20/18 1700 84.0 22 41.2 3.8 S | 174 8.1 SSW | 206 0.00 27 0.00 47.5 85.1 10/20/18
10/20/18 1600 83.8 22 40.9 3.9 SSE | 152 7.4 E | 101 0.00 41 0.00 47.5 84.6 10/20/18
10/20/18 1500 83.1 23 41.2 3.7 SSE | 164 7.4 SSE | 166 0.00 51 0.00 47.5 84.5 10/20/18
10/20/18 1400 80.9 24 40.7 3.5 SSE | 158 7.3 SE | 139 0.00 57 0.00 47.5 82.5 10/20/18
10/20/18 1300 78.0 27 41.8 2.9 SE | 138 5.8 SSE | 150 0.00 57 0.00 47.5 79.5 10/20/18
10/20/18 1200 74.2 34 43.5 2.7 SSE | 154 6.1 ESE | 122 0.00 52 0.00 47.5 77.3 10/20/18
10/20/18 1100 70.0 41 45.5 1.7 SSE | 150 4.3 SE | 127 0.00 42 0.00 47.5 72.2 10/20/18
10/20/18 1000 63.5 47 43.1 0.3 SSW | 200 2.7 SSE | 168 0.00 29 0.00 47.5 67.9 10/20/18
10/20/18 0900 56.5 58 41.8 3.8 NNW | 332 8.4 N | 355 0.00 14 0.00 47.5 60.7 10/20/18
10/20/18 0800 54.1 61 41.1 5.8 N | 350 10.3 N | 351 0.00 1 0.00 47.5 60.7 10/20/18
10/20/18 0700 52.7 64 41.0 4.0 NNW | 329 9.0 N | 349 0.00 0 0.00 47.5 60.7 10/20/18
10/20/18 0600 51.3 67 40.9 2.2 NNW | 332 6.1 NNW | 342 0.00 0 0.00 47.5 60.7 10/20/18
10/20/18 0500 49.3 72 40.6 1.0 N | 358 5.3 NNW | 340 0.00 0 0.00 47.5 60.7 10/20/18
10/20/18 0400 49.7 69 40.0 0.0 ESE | 116 1.4 SSE | 155 0.00 0 0.00 48.2 60.7 10/20/18
10/20/18 0300 53.5 64 41.8 0.7 NW | 314 4.1 WNW | 289 0.00 0 0.00 52.4 60.7 10/20/18
10/20/18 0200 54.5 62 41.7 0.8 NW | 324 3.8 W | 278 0.00 0 0.00 53.3 60.7 10/20/18
10/20/18 0100 59.0 54 42.4 2.3 N | 349 5.1 N | 355 0.00 0 0.00 56.9 60.7 10/20/18
10/20/18 0000 60.8 51 42.8 5.2 NNW | 345 9.5 NW | 317 0.00 0 0.00 44.8 85.7 10/19/18
10/19/18 2300 62.2 49 42.8 5.8 N | 351 10.5 N | 352 0.00 0 0.00 44.8 85.7 10/19/18
10/19/18 2200 62.9 48 42.8 5.3 NNW | 346 9.1 N | 354 0.00 0 0.00 44.8 85.7 10/19/18
10/19/18 2100 63.3 47 42.5 3.3 NNW | 342 6.4 NNW | 341 0.00 0 0.00 44.8 85.7 10/19/18
10/19/18 2000 65.6 43 42.4 1.5 NNW | 346 5.3 NW | 316 0.00 0 0.00 44.8 85.7 10/19/18
10/19/18 1900 70.3 38 43.2 0.7 NNW | 347 4.3 NW | 326 0.00 1 0.00 44.8 85.7 10/19/18
10/19/18 1800 82.6 26 44.1 1.4 S | 178 6.1 SSW | 194 0.00 10 0.00 44.8 85.7 10/19/18
10/19/18 1700 85.0 21 41.1 2.4 S | 178 6.1 SSE | 162 0.00 26 0.00 44.8 85.7 10/19/18
10/19/18 1600 84.9 21 40.7 3.2 S | 186 6.9 SSE | 165 0.00 40 0.00 44.8 85.7 10/19/18
10/19/18 1500 84.0 21 40.2 3.5 SSW | 192 7.4 SSE | 164 0.00 51 0.00 44.8 85.1 10/19/18
10/19/18 1400 81.0 25 42.2 3.0 SSW | 199 7.3 SSW | 205 0.00 57 0.00 44.8 82.7 10/19/18
10/19/18 1300 77.8 31 45.1 2.7 SSW | 192 7.8 SW | 222 0.00 57 0.00 44.8 80.1 10/19/18
10/19/18 1200 72.3 37 44.5 2.4 SSW | 197 7.3 SSE | 156 0.00 52 0.00 44.8 74.9 10/19/18
10/19/18 1100 67.8 43 44.6 3.0 SSW | 192 7.1 SW | 218 0.00 43 0.00 44.8 70.2 10/19/18
10/19/18 1000 65.2 47 44.5 1.6 SW | 236 5.8 SSE | 165 0.00 29 0.00 44.8 68.2 10/19/18
10/19/18 0900 56.9 61 43.6 1.9 N | 7 5.6 N | 3 0.00 14 0.00 44.8 60.4 10/19/18
10/19/18 0800 46.5 79 40.2 0.3 NNW | 336 4.8 N | 349 0.00 1 0.00 44.8 59.5 10/19/18
10/19/18 0700 46.4 77 39.5 0.3 ESE | 109 3.8 SE | 130 0.00 0 0.00 44.8 59.5 10/19/18
10/19/18 0600 51.9 70 42.3 2.4 NNW | 334 6.8 NNW | 336 0.00 0 0.00 45.6 59.5 10/19/18
10/19/18 0500 47.3 75 39.8 0.5 N | 351 5.3 NW | 313 0.00 0 0.00 45.6 59.5 10/19/18
10/19/18 0400 48.7 72 40.0 0.3 E | 88 2.6 ESE | 123 0.00 0 0.00 47.0 59.5 10/19/18
10/19/18 0300 55.1 61 41.9 1.0 NW | 322 4.4 NNW | 336 0.00 0 0.00 50.1 59.5 10/19/18
10/19/18 0200 57.8 57 42.8 2.9 NNW | 332 6.8 NNW | 340 0.00 0 0.00 56.0 59.0 10/19/18
10/19/18 0100 57.4 58 43.0 2.7 NNW | 339 5.6 W | 269 0.00 0 0.00 56.0 58.2 10/19/18
10/19/18 0000 58.5 57 43.4 4.2 NNW | 337 7.3 NNW | 341 0.00 0 0.00 40.9 83.1 10/18/18
10/18/18 2300 59.0 56 43.3 3.7 NNW | 340 7.3 NNW | 334 0.00 0 0.00 40.9 83.1 10/18/18
10/18/18 2200 60.9 52 43.4 4.4 NNW | 348 8.4 NNE | 18 0.00 0 0.00 40.9 83.1 10/18/18
10/18/18 2100 62.0 49 42.7 2.6 NNW | 339 5.9 NW | 321 0.00 0 0.00 40.9 83.1 10/18/18
10/18/18 2000 64.1 45 42.5 2.4 NNW | 337 6.1 NNW | 327 0.00 0 0.00 40.9 83.1 10/18/18
10/18/18 1900 69.2 40 43.8 1.9 N | 353 5.8 NW | 317 0.00 1 0.00 40.9 83.1 10/18/18
10/18/18 1800 79.4 28 43.5 2.6 S | 171 6.3 SSE | 159 0.00 11 0.00 40.9 83.1 10/18/18
10/18/18 1700 81.9 23 40.8 3.1 S | 184 6.4 SSE | 161 0.00 27 0.00 40.9 83.1 10/18/18
10/18/18 1600 81.9 24 41.6 3.3 SSW | 193 8.0 SSW | 198 0.00 41 0.00 40.9 83.1 10/18/18
10/18/18 1500 80.1 27 42.8 3.4 SSW | 207 7.4 WSW | 238 0.00 51 0.00 40.9 81.7 10/18/18
10/18/18 1400 76.7 31 44.1 3.4 SSW | 204 7.6 S | 173 0.00 57 0.00 40.9 79.1 10/18/18
10/18/18 1300 72.7 39 46.4 4.0 SSW | 195 8.8 SSW | 207 0.00 57 0.00 40.9 75.0 10/18/18
10/18/18 1200 69.1 43 45.5 3.1 S | 182 7.6 S | 175 0.00 52 0.00 40.9 71.4 10/18/18
10/18/18 1100 65.8 49 46.1 3.0 S | 190 6.4 S | 185 0.00 43 0.00 40.9 67.4 10/18/18
10/18/18 1000 60.8 57 45.4 0.9 SSE | 161 3.8 S | 181 0.00 30 0.00 40.9 64.5 10/18/18
10/18/18 0900 51.4 72 42.6 0.6 NW | 312 3.9 NNW | 331 0.00 15 0.00 40.9 55.3 10/18/18
10/18/18 0800 46.2 81 40.7 1.8 NNW | 334 5.8 NNW | 332 0.00 1 0.00 40.9 49.7 10/18/18
10/18/18 0700 44.2 83 39.4 0.6 N | 5 4.9 N | 355 0.00 0 0.00 40.9 49.7 10/18/18
10/18/18 0600 41.6 80 35.9 0.1 NE | 43 1.9 N | 355 0.00 0 0.00 40.9 49.7 10/18/18
10/18/18 0500 42.2 78 35.9 0.1 E | 93 2.1 ENE | 71 0.00 0 0.00 41.0 49.7 10/18/18
10/18/18 0400 43.8 76 36.8 0.0 NE | 52 1.6 SSW | 212 0.00 0 0.00 42.1 49.7 10/18/18
10/18/18 0300 44.4 72 36.1 0.1 N | 2 1.6 N | 349 0.00 0 0.00 43.7 49.7 10/18/18
10/18/18 0200 45.7 69 36.0 0.0 ENE | 60 1.4 - 0.00 0 0.00 44.8 49.7 10/18/18
10/18/18 0100 48.2 65 37.0 0.1 E | 96 2.1 SE | 136 0.00 0 0.00 46.8 49.7 10/18/18
10/18/18 0000 52.5 58 38.2 0.2 NNW | 346 2.9 NNW | 343 0.00 0 0.00 42.2 82.4 10/17/18
10/17/18 2300 56.9 52 39.6 2.5 NNW | 341 6.1 N | 3 0.00 0 0.00 42.2 82.4 10/17/18
10/17/18 2200 58.5 48 38.6 2.3 N | 350 5.8 NNW | 335 0.00 0 0.00 42.2 82.4 10/17/18
10/17/18 2100 61.4 41 37.8 2.6 NNW | 342 4.6 NNW | 338 0.00 0 0.00 42.2 82.4 10/17/18
10/17/18 2000 62.6 42 39.0 2.2 NNW | 347 5.4 NNW | 340 0.00 0 0.00 42.2 82.4 10/17/18
10/17/18 1900 67.4 38 41.0 1.4 N | 358 5.1 N | 355 0.00 1 0.00 42.2 82.4 10/17/18
10/17/18 1800 78.2 27 41.5 2.5 S | 179 6.3 S | 169 0.00 11 0.00 42.2 82.4 10/17/18
10/17/18 1700 81.2 20 36.3 3.1 S | 181 8.1 S | 176 0.00 27 0.00 42.2 82.4 10/17/18
10/17/18 1600 81.3 20 36.4 3.4 S | 184 7.8 S | 170 0.00 42 0.00 42.2 82.4 10/17/18
10/17/18 1500 80.2 21 37.1 4.3 S | 190 8.6 SSW | 194 0.00 52 0.00 42.2 81.5 10/17/18
10/17/18 1400 78.0 24 38.2 5.1 SSW | 198 11.1 SSW | 199 0.00 58 0.00 42.2 79.3 10/17/18
10/17/18 1300 74.8 30 40.8 4.4 SSW | 194 9.0 SSW | 196 0.00 58 0.00 42.2 77.2 10/17/18
10/17/18 1200 70.3 36 41.8 3.3 S | 188 6.9 S | 190 0.00 53 0.00 42.2 72.5 10/17/18
10/17/18 1100 67.0 34 37.6 2.0 S | 171 4.8 S | 172 0.00 44 0.00 42.2 69.5 10/17/18
10/17/18 1000 59.9 41 36.1 1.0 WSW | 243 3.4 WNW | 301 0.00 31 0.00 42.2 64.7 10/17/18
10/17/18 0900 50.8 54 34.7 2.6 NNW | 327 6.3 NNW | 327 0.00 15 0.00 42.2 54.5 10/17/18
10/17/18 0800 44.8 64 33.6 1.5 NNW | 346 7.4 NW | 309 0.00 1 0.00 42.2 52.0 10/17/18
10/17/18 0700 46.9 60 33.7 3.0 NNW | 328 7.4 NNW | 343 0.00 0 0.00 42.2 52.0 10/17/18
10/17/18 0600 46.8 60 33.5 2.0 NNW | 340 6.4 N | 351 0.00 0 0.00 42.2 52.0 10/17/18
10/17/18 0500 43.8 61 31.1 0.5 N | 3 3.1 N | 352 0.00 0 0.00 42.2 52.0 10/17/18
10/17/18 0400 43.3 58 29.6 0.3 NNE | 18 3.1 NNW | 327 0.00 0 0.00 42.2 52.0 10/17/18
10/17/18 0300 45.2 53 29.1 0.2 NE | 56 2.4 NE | 52 0.00 0 0.00 43.7 52.0 10/17/18
10/17/18 0200 48.6 50 30.8 0.2 ESE | 112 2.2 SSE | 154 0.00 0 0.00 46.6 52.0 10/17/18
10/17/18 0100 50.4 46 30.6 0.2 NNW | 332 2.7 SE | 136 0.00 0 0.00 49.0 52.0 10/17/18
10/17/18 0000 55.2 40 31.1 1.4 NNW | 331 4.9 NNW | 327 0.00 0 0.00 42.1 85.7 10/16/18
10/16/18 2300 56.7 38 31.4 1.2 NNW | 340 4.4 N | 11 0.00 0 0.00 42.1 85.7 10/16/18
10/16/18 2200 59.7 33 30.8 2.7 N | 353 5.9 NNW | 332 0.00 0 0.00 42.1 85.7 10/16/18
10/16/18 2100 60.1 32 30.4 1.6 NNW | 345 3.8 N | 351 0.00 0 0.00 42.1 85.7 10/16/18
10/16/18 2000 63.4 29 30.1 1.5 NNW | 346 3.9 N | 351 0.00 0 0.00 42.1 85.7 10/16/18
10/16/18 1900 70.2 23 30.4 1.2 N | 357 5.3 N | 351 0.00 1 0.00 42.1 85.7 10/16/18
10/16/18 1800 81.0 17 32.3 2.2 WSW | 255 5.4 WSW | 253 0.00 12 0.00 42.1 85.7 10/16/18
10/16/18 1700 84.4 16 32.5 3.7 SSW | 204 9.6 SSE | 156 0.00 29 0.00 42.1 85.7 10/16/18
10/16/18 1600 84.5 15 32.4 4.2 S | 177 9.0 SSE | 165 0.00 43 0.00 42.1 85.1 10/16/18
10/16/18 1500 83.4 15 30.9 3.7 S | 185 7.8 S | 181 0.00 53 0.00 42.1 84.7 10/16/18
10/16/18 1400 81.1 17 32.5 3.8 S | 175 10.6 S | 188 0.00 59 0.00 42.1 82.1 10/16/18
10/16/18 1300 78.1 22 35.5 3.8 S | 190 8.4 SSW | 211 0.00 60 0.00 42.1 80.3 10/16/18
10/16/18 1200 74.3 22 33.4 3.5 SSE | 164 7.1 SE | 144 0.00 55 0.00 42.1 76.4 10/16/18
10/16/18 1100 70.3 21 28.5 2.3 S | 184 5.6 SW | 216 0.00 45 0.00 42.1 72.7 10/16/18
10/16/18 1000 64.2 24 26.3 1.3 S | 184 3.4 S | 186 0.00 32 0.00 42.1 68.0 10/16/18
10/16/18 0900 52.8 34 25.1 0.4 ESE | 111 3.1 ESE | 117 0.00 16 0.00 42.1 58.9 10/16/18
10/16/18 0800 44.7 43 23.3 0.4 N | 1 3.3 NNW | 344 0.00 1 0.00 42.1 55.9 10/16/18
10/16/18 0700 47.2 38 22.8 1.4 N | 351 5.8 N | 6 0.00 0 0.00 42.1 55.9 10/16/18
10/16/18 0600 44.0 45 23.7 0.8 NNW | 343 3.9 NNW | 347 0.00 0 0.00 42.1 55.9 10/16/18
10/16/18 0500 45.7 41 23.3 0.5 N | 356 4.3 ENE | 58 0.00 0 0.00 44.3 55.9 10/16/18
10/16/18 0400 46.4 41 23.7 0.1 ENE | 74 2.4 NNW | 337 0.00 0 0.00 44.3 55.9 10/16/18
10/16/18 0300 53.4 33 24.7 3.8 NNW | 330 7.6 NW | 315 0.00 0 0.00 49.9 55.9 10/16/18
10/16/18 0200 52.6 34 25.2 1.9 NNW | 344 7.1 NNW | 339 0.00 0 0.00 50.0 55.9 10/16/18
10/16/18 0100 54.1 33 25.4 3.6 NNW | 341 8.4 N | 353 0.00 0 0.00 52.3 55.9 10/16/18
10/16/18 0000 55.9 30 25.1 3.7 NNW | 344 8.8 NNW | 346 0.00 0 0.00 53.0 85.6 10/15/18
10/15/18 2300 57.7 28 24.5 4.3 N | 352 7.8 N | 355 0.00 0 0.00 56.9 85.6 10/15/18
10/15/18 2200 59.4 26 24.0 5.0 N | 353 9.1 N | 354 0.00 0 0.00 58.2 85.6 10/15/18
10/15/18 2100 60.3 24 23.2 3.6 NNW | 340 8.4 N | 0 0.00 0 0.00 58.8 85.6 10/15/18
10/15/18 2000 62.2 22 23.2 2.3 NNW | 346 5.6 NNW | 328 0.00 0 0.00 60.8 85.6 10/15/18
10/15/18 1900 68.2 19 23.4 1.0 ENE | 62 3.8 ENE | 67 0.00 1 0.00 60.9 85.6 10/15/18
10/15/18 1800 81.3 12 24.3 2.8 SSW | 205 7.4 S | 175 0.00 13 0.00 62.2 85.6 10/15/18
10/15/18 1700 84.4 10 22.5 3.6 S | 183 11.1 SSW | 199 0.00 30 0.00 62.2 85.6 10/15/18
10/15/18 1600 84.6 10 21.5 3.6 SSE | 156 10.0 WSW | 241 0.00 45 0.00 62.2 85.6 10/15/18
10/15/18 1500 83.8 10 21.1 3.3 SW | 214 8.0 SE | 131 0.00 56 0.00 62.2 85.4 10/15/18
10/15/18 1400 82.5 10 20.1 3.3 S | 178 9.3 ESE | 110 0.00 61 0.00 62.2 84.0 10/15/18
10/15/18 1300 80.0 10 18.3 2.6 WNW | 285 8.4 W | 272 0.00 62 0.00 62.2 82.1 10/15/18
10/15/18 1200 76.8 11 17.8 5.6 NW | 310 11.1 NW | 320 0.00 57 0.00 62.2 78.3 10/15/18
Tip: Bookmark this page for easy future reference